sensor_id;sensor_type;location;lat;lon;timestamp;temperature;humidity
13569;DHT22;6856;51.460;7.158;2023-05-10T00:00:27;17.40;66.50
13569;DHT22;6856;51.460;7.158;2023-05-10T00:03:02;17.40;66.60
13569;DHT22;6856;51.460;7.158;2023-05-10T00:05:37;17.40;66.70
13569;DHT22;6856;51.460;7.158;2023-05-10T00:08:11;17.40;66.80
13569;DHT22;6856;51.460;7.158;2023-05-10T00:10:45;17.40;66.80
13569;DHT22;6856;51.460;7.158;2023-05-10T00:13:19;17.40;66.90
13569;DHT22;6856;51.460;7.158;2023-05-10T00:15:53;17.40;67.10
13569;DHT22;6856;51.460;7.158;2023-05-10T00:18:28;17.40;67.10
13569;DHT22;6856;51.460;7.158;2023-05-10T00:21:02;17.40;67.20
13569;DHT22;6856;51.460;7.158;2023-05-10T00:23:35;17.40;67.20
13569;DHT22;6856;51.460;7.158;2023-05-10T00:26:10;17.40;67.20
13569;DHT22;6856;51.460;7.158;2023-05-10T00:28:44;17.40;67.20
13569;DHT22;6856;51.460;7.158;2023-05-10T00:31:18;17.40;67.20
13569;DHT22;6856;51.460;7.158;2023-05-10T00:33:54;17.30;67.20
13569;DHT22;6856;51.460;7.158;2023-05-10T00:36:28;17.30;67.30
13569;DHT22;6856;51.460;7.158;2023-05-10T00:39:03;17.30;67.30
13569;DHT22;6856;51.460;7.158;2023-05-10T00:41:37;17.30;67.40
13569;DHT22;6856;51.460;7.158;2023-05-10T00:44:11;17.30;67.40
13569;DHT22;6856;51.460;7.158;2023-05-10T00:46:45;17.30;67.40
13569;DHT22;6856;51.460;7.158;2023-05-10T00:49:21;17.30;67.50
13569;DHT22;6856;51.460;7.158;2023-05-10T00:51:55;17.30;67.50
13569;DHT22;6856;51.460;7.158;2023-05-10T00:54:29;17.30;67.50
13569;DHT22;6856;51.460;7.158;2023-05-10T00:57:03;17.30;67.60
13569;DHT22;6856;51.460;7.158;2023-05-10T00:59:38;17.30;67.60
13569;DHT22;6856;51.460;7.158;2023-05-10T01:02:12;17.30;67.70
13569;DHT22;6856;51.460;7.158;2023-05-10T01:04:49;17.30;67.70
13569;DHT22;6856;51.460;7.158;2023-05-10T01:07:24;17.30;67.80
13569;DHT22;6856;51.460;7.158;2023-05-10T01:09:58;17.30;67.70
13569;DHT22;6856;51.460;7.158;2023-05-10T01:12:33;17.30;68.30
13569;DHT22;6856;51.460;7.158;2023-05-10T01:15:10;17.30;67.60
13569;DHT22;6856;51.460;7.158;2023-05-10T01:17:46;17.30;67.60
13569;DHT22;6856;51.460;7.158;2023-05-10T01:20:23;17.30;67.50
13569;DHT22;6856;51.460;7.158;2023-05-10T01:23:14;17.20;67.40
13569;DHT22;6856;51.460;7.158;2023-05-10T01:26:39;17.20;67.60
13569;DHT22;6856;51.460;7.158;2023-05-10T01:29:49;17.20;67.70
13569;DHT22;6856;51.460;7.158;2023-05-10T01:32:55;17.20;67.60
13569;DHT22;6856;51.460;7.158;2023-05-10T01:35:40;17.20;67.60
13569;DHT22;6856;51.460;7.158;2023-05-10T01:38:22;17.10;67.60
13569;DHT22;6856;51.460;7.158;2023-05-10T01:41:14;17.10;67.50
13569;DHT22;6856;51.460;7.158;2023-05-10T01:43:56;17.10;67.50
13569;DHT22;6856;51.460;7.158;2023-05-10T01:46:36;17.10;67.50
13569;DHT22;6856;51.460;7.158;2023-05-10T01:49:19;17.00;67.30
13569;DHT22;6856;51.460;7.158;2023-05-10T01:52:00;17.00;67.50
13569;DHT22;6856;51.460;7.158;2023-05-10T01:54:44;17.00;67.50
13569;DHT22;6856;51.460;7.158;2023-05-10T01:57:36;16.90;67.50
13569;DHT22;6856;51.460;7.158;2023-05-10T02:00:13;16.90;67.50
13569;DHT22;6856;51.460;7.158;2023-05-10T02:02:49;16.90;67.60
13569;DHT22;6856;51.460;7.158;2023-05-10T02:05:27;16.90;67.60
13569;DHT22;6856;51.460;7.158;2023-05-10T02:08:06;16.80;67.70
13569;DHT22;6856;51.460;7.158;2023-05-10T02:10:41;16.80;67.80
13569;DHT22;6856;51.460;7.158;2023-05-10T02:13:17;16.80;67.80
13569;DHT22;6856;51.460;7.158;2023-05-10T02:15:53;16.80;67.80
13569;DHT22;6856;51.460;7.158;2023-05-10T02:18:28;16.80;67.80
13569;DHT22;6856;51.460;7.158;2023-05-10T02:21:06;16.80;67.90
13569;DHT22;6856;51.460;7.158;2023-05-10T02:23:43;16.80;67.90
13569;DHT22;6856;51.460;7.158;2023-05-10T02:26:18;16.70;67.90
13569;DHT22;6856;51.460;7.158;2023-05-10T02:28:58;16.70;67.90
13569;DHT22;6856;51.460;7.158;2023-05-10T02:31:35;16.70;67.90
13569;DHT22;6856;51.460;7.158;2023-05-10T02:34:11;16.70;68.00
13569;DHT22;6856;51.460;7.158;2023-05-10T02:36:47;16.70;68.00
13569;DHT22;6856;51.460;7.158;2023-05-10T02:39:23;16.70;68.10
13569;DHT22;6856;51.460;7.158;2023-05-10T02:41:58;16.70;68.10
13569;DHT22;6856;51.460;7.158;2023-05-10T02:44:34;16.70;68.10
13569;DHT22;6856;51.460;7.158;2023-05-10T02:47:09;16.70;68.20
13569;DHT22;6856;51.460;7.158;2023-05-10T02:49:43;16.70;68.10
13569;DHT22;6856;51.460;7.158;2023-05-10T02:52:23;16.70;68.20
13569;DHT22;6856;51.460;7.158;2023-05-10T02:55:02;16.70;68.20
13569;DHT22;6856;51.460;7.158;2023-05-10T02:57:41;16.70;68.10
13569;DHT22;6856;51.460;7.158;2023-05-10T03:00:18;16.70;68.30
13569;DHT22;6856;51.460;7.158;2023-05-10T03:02:53;16.70;68.20
13569;DHT22;6856;51.460;7.158;2023-05-10T03:05:27;16.70;68.10
13569;DHT22;6856;51.460;7.158;2023-05-10T03:08:02;16.70;68.10
13569;DHT22;6856;51.460;7.158;2023-05-10T03:10:44;16.70;68.20
13569;DHT22;6856;51.460;7.158;2023-05-10T03:13:43;16.70;68.20
13569;DHT22;6856;51.460;7.158;2023-05-10T03:16:27;16.70;68.10
13569;DHT22;6856;51.460;7.158;2023-05-10T03:19:12;16.70;68.10
13569;DHT22;6856;51.460;7.158;2023-05-10T03:21:53;16.70;68.10
13569;DHT22;6856;51.460;7.158;2023-05-10T03:24:35;16.70;68.00
13569;DHT22;6856;51.460;7.158;2023-05-10T03:27:14;16.70;68.00
13569;DHT22;6856;51.460;7.158;2023-05-10T03:29:49;16.70;68.00
13569;DHT22;6856;51.460;7.158;2023-05-10T03:32:24;16.70;68.00
13569;DHT22;6856;51.460;7.158;2023-05-10T03:34:59;16.70;68.00
13569;DHT22;6856;51.460;7.158;2023-05-10T03:37:34;16.70;68.00
13569;DHT22;6856;51.460;7.158;2023-05-10T03:40:10;16.70;68.00
13569;DHT22;6856;51.460;7.158;2023-05-10T03:42:44;16.70;68.10
13569;DHT22;6856;51.460;7.158;2023-05-10T03:45:18;16.70;68.00
13569;DHT22;6856;51.460;7.158;2023-05-10T03:47:52;16.70;68.10
13569;DHT22;6856;51.460;7.158;2023-05-10T03:50:27;16.70;68.10
13569;DHT22;6856;51.460;7.158;2023-05-10T03:53:01;16.70;68.70
13569;DHT22;6856;51.460;7.158;2023-05-10T03:55:36;16.70;68.00
13569;DHT22;6856;51.460;7.158;2023-05-10T03:58:11;16.70;68.00
13569;DHT22;6856;51.460;7.158;2023-05-10T04:00:45;16.70;68.00
13569;DHT22;6856;51.460;7.158;2023-05-10T04:03:19;16.70;68.00
13569;DHT22;6856;51.460;7.158;2023-05-10T04:05:59;16.70;68.10
13569;DHT22;6856;51.460;7.158;2023-05-10T04:08:34;16.70;68.20
13569;DHT22;6856;51.460;7.158;2023-05-10T04:11:11;16.70;68.20
13569;DHT22;6856;51.460;7.158;2023-05-10T04:13:46;16.70;68.40
13569;DHT22;6856;51.460;7.158;2023-05-10T04:16:20;16.70;68.30
13569;DHT22;6856;51.460;7.158;2023-05-10T04:18:53;16.70;68.40
13569;DHT22;6856;51.460;7.158;2023-05-10T04:21:27;16.70;68.40
13569;DHT22;6856;51.460;7.158;2023-05-10T04:24:01;16.70;68.30
13569;DHT22;6856;51.460;7.158;2023-05-10T04:26:36;16.60;68.40
13569;DHT22;6856;51.460;7.158;2023-05-10T04:29:10;16.70;68.50
13569;DHT22;6856;51.460;7.158;2023-05-10T04:31:43;16.60;68.50
13569;DHT22;6856;51.460;7.158;2023-05-10T04:34:17;16.60;68.60
13569;DHT22;6856;51.460;7.158;2023-05-10T04:36:51;16.60;68.60
13569;DHT22;6856;51.460;7.158;2023-05-10T04:39:25;16.60;68.70
13569;DHT22;6856;51.460;7.158;2023-05-10T04:42:00;16.60;68.80
13569;DHT22;6856;51.460;7.158;2023-05-10T04:44:34;16.60;68.90
13569;DHT22;6856;51.460;7.158;2023-05-10T04:47:09;16.60;68.90
13569;DHT22;6856;51.460;7.158;2023-05-10T04:49:44;16.60;68.90
13569;DHT22;6856;51.460;7.158;2023-05-10T04:52:18;16.60;69.00
13569;DHT22;6856;51.460;7.158;2023-05-10T04:54:51;16.60;69.00
13569;DHT22;6856;51.460;7.158;2023-05-10T04:57:26;16.60;69.00
13569;DHT22;6856;51.460;7.158;2023-05-10T05:00:01;16.70;69.20
13569;DHT22;6856;51.460;7.158;2023-05-10T05:02:35;16.70;69.10
13569;DHT22;6856;51.460;7.158;2023-05-10T05:05:09;16.60;69.10
13569;DHT22;6856;51.460;7.158;2023-05-10T05:07:43;16.60;69.20
13569;DHT22;6856;51.460;7.158;2023-05-10T05:10:17;16.60;69.10
13569;DHT22;6856;51.460;7.158;2023-05-10T05:12:53;16.60;69.20
13569;DHT22;6856;51.460;7.158;2023-05-10T05:15:26;16.60;69.30
13569;DHT22;6856;51.460;7.158;2023-05-10T05:18:02;16.60;69.40
13569;DHT22;6856;51.460;7.158;2023-05-10T05:20:36;16.60;69.50
13569;DHT22;6856;51.460;7.158;2023-05-10T05:23:10;16.60;69.40
13569;DHT22;6856;51.460;7.158;2023-05-10T05:25:43;16.60;69.60
13569;DHT22;6856;51.460;7.158;2023-05-10T05:28:19;16.70;69.70
13569;DHT22;6856;51.460;7.158;2023-05-10T05:30:53;16.70;69.80
13569;DHT22;6856;51.460;7.158;2023-05-10T05:33:26;16.70;69.80
13569;DHT22;6856;51.460;7.158;2023-05-10T05:36:00;16.70;69.80
13569;DHT22;6856;51.460;7.158;2023-05-10T05:38:37;16.70;70.00
13569;DHT22;6856;51.460;7.158;2023-05-10T05:41:11;16.70;70.00
13569;DHT22;6856;51.460;7.158;2023-05-10T05:43:47;16.70;69.90
13569;DHT22;6856;51.460;7.158;2023-05-10T05:46:21;16.70;69.90
13569;DHT22;6856;51.460;7.158;2023-05-10T05:48:55;16.70;70.60
13569;DHT22;6856;51.460;7.158;2023-05-10T05:51:29;16.70;70.00
13569;DHT22;6856;51.460;7.158;2023-05-10T05:54:03;16.70;69.90
13569;DHT22;6856;51.460;7.158;2023-05-10T05:56:37;16.70;69.90
13569;DHT22;6856;51.460;7.158;2023-05-10T05:59:12;16.70;70.00
13569;DHT22;6856;51.460;7.158;2023-05-10T06:01:46;16.80;70.10
13569;DHT22;6856;51.460;7.158;2023-05-10T06:04:20;16.80;70.10
13569;DHT22;6856;51.460;7.158;2023-05-10T06:06:54;16.80;70.30
13569;DHT22;6856;51.460;7.158;2023-05-10T06:09:28;16.80;70.20
13569;DHT22;6856;51.460;7.158;2023-05-10T06:12:02;16.80;70.20
13569;DHT22;6856;51.460;7.158;2023-05-10T06:14:37;16.80;70.20
13569;DHT22;6856;51.460;7.158;2023-05-10T06:17:11;16.80;70.20
13569;DHT22;6856;51.460;7.158;2023-05-10T06:19:45;16.80;70.30
13569;DHT22;6856;51.460;7.158;2023-05-10T06:22:19;16.80;70.30
13569;DHT22;6856;51.460;7.158;2023-05-10T06:24:54;16.80;70.30
13569;DHT22;6856;51.460;7.158;2023-05-10T06:27:27;16.80;70.40
13569;DHT22;6856;51.460;7.158;2023-05-10T06:30:07;16.90;70.60
13569;DHT22;6856;51.460;7.158;2023-05-10T06:32:44;16.90;70.80
13569;DHT22;6856;51.460;7.158;2023-05-10T06:35:18;16.90;70.70
13569;DHT22;6856;51.460;7.158;2023-05-10T06:37:52;16.90;70.80
13569;DHT22;6856;51.460;7.158;2023-05-10T06:40:27;17.00;70.90
13569;DHT22;6856;51.460;7.158;2023-05-10T06:43:01;17.00;70.80
13569;DHT22;6856;51.460;7.158;2023-05-10T06:45:36;17.00;70.70
13569;DHT22;6856;51.460;7.158;2023-05-10T06:48:10;17.10;70.90
13569;DHT22;6856;51.460;7.158;2023-05-10T06:50:44;17.10;70.90
13569;DHT22;6856;51.460;7.158;2023-05-10T06:53:17;17.10;71.00
13569;DHT22;6856;51.460;7.158;2023-05-10T06:55:51;17.10;71.00
13569;DHT22;6856;51.460;7.158;2023-05-10T06:58:25;17.20;71.30
13569;DHT22;6856;51.460;7.158;2023-05-10T07:01:03;17.20;71.20
13569;DHT22;6856;51.460;7.158;2023-05-10T07:03:37;17.30;71.40
13569;DHT22;6856;51.460;7.158;2023-05-10T07:06:11;17.40;71.10
13569;DHT22;6856;51.460;7.158;2023-05-10T07:09:03;17.40;70.80
13569;DHT22;6856;51.460;7.158;2023-05-10T07:11:38;17.40;70.70
13569;DHT22;6856;51.460;7.158;2023-05-10T07:14:11;17.40;70.60
13569;DHT22;6856;51.460;7.158;2023-05-10T07:16:47;17.50;70.70
13569;DHT22;6856;51.460;7.158;2023-05-10T07:19:21;17.50;70.70
13569;DHT22;6856;51.460;7.158;2023-05-10T07:21:55;17.50;70.70
13569;DHT22;6856;51.460;7.158;2023-05-10T07:24:32;17.60;70.60
13569;DHT22;6856;51.460;7.158;2023-05-10T07:27:06;17.60;70.50
13569;DHT22;6856;51.460;7.158;2023-05-10T07:29:40;17.60;70.30
13569;DHT22;6856;51.460;7.158;2023-05-10T07:32:17;17.60;70.30
13569;DHT22;6856;51.460;7.158;2023-05-10T07:34:50;17.60;70.30
13569;DHT22;6856;51.460;7.158;2023-05-10T07:37:24;17.70;70.40
13569;DHT22;6856;51.460;7.158;2023-05-10T07:39:59;17.70;70.40
13569;DHT22;6856;51.460;7.158;2023-05-10T07:42:33;17.80;70.60
13569;DHT22;6856;51.460;7.158;2023-05-10T07:45:08;17.80;70.70
13569;DHT22;6856;51.460;7.158;2023-05-10T07:47:44;17.90;70.80
13569;DHT22;6856;51.460;7.158;2023-05-10T07:50:17;17.90;70.50
13569;DHT22;6856;51.460;7.158;2023-05-10T07:52:51;18.00;70.10
13569;DHT22;6856;51.460;7.158;2023-05-10T07:55:26;18.00;69.90
13569;DHT22;6856;51.460;7.158;2023-05-10T07:58:01;18.10;69.60
13569;DHT22;6856;51.460;7.158;2023-05-10T08:00:36;18.10;69.50
13569;DHT22;6856;51.460;7.158;2023-05-10T08:03:12;18.10;69.30
13569;DHT22;6856;51.460;7.158;2023-05-10T08:05:47;18.10;69.70
13569;DHT22;6856;51.460;7.158;2023-05-10T08:08:20;18.10;68.80
13569;DHT22;6856;51.460;7.158;2023-05-10T08:10:55;18.10;68.50
13569;DHT22;6856;51.460;7.158;2023-05-10T08:13:30;18.10;68.50
13569;DHT22;6856;51.460;7.158;2023-05-10T08:16:05;18.10;68.40
13569;DHT22;6856;51.460;7.158;2023-05-10T08:18:41;18.10;68.40
13569;DHT22;6856;51.460;7.158;2023-05-10T08:21:15;18.10;68.40
13569;DHT22;6856;51.460;7.158;2023-05-10T08:23:49;18.10;68.50
13569;DHT22;6856;51.460;7.158;2023-05-10T08:26:23;18.10;68.50
13569;DHT22;6856;51.460;7.158;2023-05-10T08:28:56;18.10;68.50
13569;DHT22;6856;51.460;7.158;2023-05-10T08:31:30;18.10;68.60
13569;DHT22;6856;51.460;7.158;2023-05-10T08:34:06;18.10;69.30
13569;DHT22;6856;51.460;7.158;2023-05-10T08:36:40;18.10;68.40
13569;DHT22;6856;51.460;7.158;2023-05-10T08:39:14;18.10;68.50
13569;DHT22;6856;51.460;7.158;2023-05-10T08:42:03;18.10;68.50
13569;DHT22;6856;51.460;7.158;2023-05-10T08:44:37;18.10;68.70
13569;DHT22;6856;51.460;7.158;2023-05-10T08:47:13;18.10;68.60
13569;DHT22;6856;51.460;7.158;2023-05-10T08:49:52;18.10;68.70
13569;DHT22;6856;51.460;7.158;2023-05-10T08:52:28;18.10;69.20
13569;DHT22;6856;51.460;7.158;2023-05-10T08:55:04;18.10;68.60
13569;DHT22;6856;51.460;7.158;2023-05-10T08:57:39;18.10;68.50
13569;DHT22;6856;51.460;7.158;2023-05-10T09:00:13;18.20;68.50
13569;DHT22;6856;51.460;7.158;2023-05-10T09:02:49;18.20;68.50
13569;DHT22;6856;51.460;7.158;2023-05-10T09:05:25;18.20;68.40
13569;DHT22;6856;51.460;7.158;2023-05-10T09:07:59;18.20;68.40
13569;DHT22;6856;51.460;7.158;2023-05-10T09:10:33;18.20;68.30
13569;DHT22;6856;51.460;7.158;2023-05-10T09:13:08;18.20;68.30
13569;DHT22;6856;51.460;7.158;2023-05-10T09:15:45;18.20;68.50
13569;DHT22;6856;51.460;7.158;2023-05-10T09:18:20;18.30;68.60
13569;DHT22;6856;51.460;7.158;2023-05-10T09:20:56;18.30;68.60
13569;DHT22;6856;51.460;7.158;2023-05-10T09:23:30;18.30;68.40
13569;DHT22;6856;51.460;7.158;2023-05-10T09:26:04;18.40;68.10
13569;DHT22;6856;51.460;7.158;2023-05-10T09:28:51;18.40;67.90
13569;DHT22;6856;51.460;7.158;2023-05-10T09:31:43;18.50;67.70
13569;DHT22;6856;51.460;7.158;2023-05-10T09:34:19;18.50;67.90
13569;DHT22;6856;51.460;7.158;2023-05-10T09:36:56;18.40;67.90
13569;DHT22;6856;51.460;7.158;2023-05-10T09:39:33;18.60;67.90
13569;DHT22;6856;51.460;7.158;2023-05-10T09:42:09;18.60;67.70
13569;DHT22;6856;51.460;7.158;2023-05-10T09:44:43;18.60;67.40
13569;DHT22;6856;51.460;7.158;2023-05-10T09:47:20;18.60;67.20
13569;DHT22;6856;51.460;7.158;2023-05-10T09:49:54;18.70;67.30
13569;DHT22;6856;51.460;7.158;2023-05-10T09:52:46;18.70;67.10
13569;DHT22;6856;51.460;7.158;2023-05-10T09:55:23;18.70;66.90
13569;DHT22;6856;51.460;7.158;2023-05-10T09:58:02;18.70;67.00
13569;DHT22;6856;51.460;7.158;2023-05-10T10:00:37;18.70;67.00
13569;DHT22;6856;51.460;7.158;2023-05-10T10:03:13;18.80;67.60
13569;DHT22;6856;51.460;7.158;2023-05-10T10:05:48;18.80;67.80
13569;DHT22;6856;51.460;7.158;2023-05-10T10:08:25;18.90;67.20
13569;DHT22;6856;51.460;7.158;2023-05-10T10:10:59;19.00;67.00
13569;DHT22;6856;51.460;7.158;2023-05-10T10:13:33;19.00;66.90
13569;DHT22;6856;51.460;7.158;2023-05-10T10:16:08;19.10;66.60
13569;DHT22;6856;51.460;7.158;2023-05-10T10:18:42;19.10;66.20
13569;DHT22;6856;51.460;7.158;2023-05-10T10:21:17;19.20;65.90
13569;DHT22;6856;51.460;7.158;2023-05-10T10:23:54;19.20;65.70
13569;DHT22;6856;51.460;7.158;2023-05-10T10:26:28;19.20;65.60
13569;DHT22;6856;51.460;7.158;2023-05-10T10:29:16;19.20;65.70
13569;DHT22;6856;51.460;7.158;2023-05-10T10:32:03;19.30;65.30
13569;DHT22;6856;51.460;7.158;2023-05-10T10:34:44;19.30;64.90
13569;DHT22;6856;51.460;7.158;2023-05-10T10:37:18;19.30;64.80
13569;DHT22;6856;51.460;7.158;2023-05-10T10:39:55;19.40;64.80
13569;DHT22;6856;51.460;7.158;2023-05-10T10:42:45;19.40;64.60
13569;DHT22;6856;51.460;7.158;2023-05-10T10:45:22;19.40;64.20
13569;DHT22;6856;51.460;7.158;2023-05-10T10:48:20;19.40;64.40
13569;DHT22;6856;51.460;7.158;2023-05-10T10:50:58;19.40;63.70
13569;DHT22;6856;51.460;7.158;2023-05-10T10:53:33;19.40;63.70
13569;DHT22;6856;51.460;7.158;2023-05-10T10:56:11;19.40;63.50
13569;DHT22;6856;51.460;7.158;2023-05-10T10:58:49;19.40;63.10
13569;DHT22;6856;51.460;7.158;2023-05-10T11:01:32;19.40;63.20
13569;DHT22;6856;51.460;7.158;2023-05-10T11:04:19;19.40;63.00
13569;DHT22;6856;51.460;7.158;2023-05-10T11:07:16;19.30;63.10
13569;DHT22;6856;51.460;7.158;2023-05-10T11:09:51;19.30;64.00
13569;DHT22;6856;51.460;7.158;2023-05-10T11:12:26;19.30;63.40
13569;DHT22;6856;51.460;7.158;2023-05-10T11:15:00;19.30;63.10
13569;DHT22;6856;51.460;7.158;2023-05-10T11:17:35;19.30;62.80
13569;DHT22;6856;51.460;7.158;2023-05-10T11:20:10;19.20;62.60
13569;DHT22;6856;51.460;7.158;2023-05-10T11:22:51;19.20;62.70
13569;DHT22;6856;51.460;7.158;2023-05-10T11:25:26;19.10;62.70
13569;DHT22;6856;51.460;7.158;2023-05-10T11:28:03;19.10;62.90
13569;DHT22;6856;51.460;7.158;2023-05-10T11:30:38;19.10;63.20
13569;DHT22;6856;51.460;7.158;2023-05-10T11:33:16;19.10;63.40
13569;DHT22;6856;51.460;7.158;2023-05-10T11:35:51;19.10;63.40
13569;DHT22;6856;51.460;7.158;2023-05-10T11:38:27;19.10;63.50
13569;DHT22;6856;51.460;7.158;2023-05-10T11:41:01;19.20;63.30
13569;DHT22;6856;51.460;7.158;2023-05-10T11:43:36;19.20;63.10
13569;DHT22;6856;51.460;7.158;2023-05-10T11:46:12;19.20;63.00
13569;DHT22;6856;51.460;7.158;2023-05-10T11:48:48;19.20;62.80
13569;DHT22;6856;51.460;7.158;2023-05-10T11:51:24;19.20;62.60
13569;DHT22;6856;51.460;7.158;2023-05-10T11:53:59;19.20;62.60
13569;DHT22;6856;51.460;7.158;2023-05-10T11:56:34;19.20;62.70
13569;DHT22;6856;51.460;7.158;2023-05-10T11:59:13;19.20;62.90
13569;DHT22;6856;51.460;7.158;2023-05-10T12:01:48;19.30;62.90
13569;DHT22;6856;51.460;7.158;2023-05-10T12:04:22;19.30;62.90
13569;DHT22;6856;51.460;7.158;2023-05-10T12:06:56;19.30;62.90
13569;DHT22;6856;51.460;7.158;2023-05-10T12:09:31;19.30;62.60
13569;DHT22;6856;51.460;7.158;2023-05-10T12:12:16;19.30;62.40
13569;DHT22;6856;51.460;7.158;2023-05-10T12:14:52;19.20;62.40
13569;DHT22;6856;51.460;7.158;2023-05-10T12:17:27;19.20;62.60
13569;DHT22;6856;51.460;7.158;2023-05-10T12:20:14;19.20;63.10
13569;DHT22;6856;51.460;7.158;2023-05-10T12:22:51;19.20;62.80
13569;DHT22;6856;51.460;7.158;2023-05-10T12:25:30;19.20;62.80
13569;DHT22;6856;51.460;7.158;2023-05-10T12:28:06;19.30;62.70
13569;DHT22;6856;51.460;7.158;2023-05-10T12:30:44;19.30;62.90
13569;DHT22;6856;51.460;7.158;2023-05-10T12:33:17;19.30;63.20
13569;DHT22;6856;51.460;7.158;2023-05-10T12:35:53;19.40;63.20
13569;DHT22;6856;51.460;7.158;2023-05-10T12:38:29;19.40;63.10
13569;DHT22;6856;51.460;7.158;2023-05-10T12:41:08;19.50;63.00
13569;DHT22;6856;51.460;7.158;2023-05-10T12:43:43;19.60;62.90
13569;DHT22;6856;51.460;7.158;2023-05-10T12:46:20;19.70;62.90
13569;DHT22;6856;51.460;7.158;2023-05-10T12:48:57;19.80;62.80
13569;DHT22;6856;51.460;7.158;2023-05-10T12:51:40;19.80;62.40
13569;DHT22;6856;51.460;7.158;2023-05-10T12:54:14;19.90;62.30
13569;DHT22;6856;51.460;7.158;2023-05-10T12:56:48;20.00;62.10
13569;DHT22;6856;51.460;7.158;2023-05-10T12:59:21;20.00;61.80
13569;DHT22;6856;51.460;7.158;2023-05-10T13:01:57;20.00;61.40
13569;DHT22;6856;51.460;7.158;2023-05-10T13:04:31;20.00;61.30
13569;DHT22;6856;51.460;7.158;2023-05-10T13:07:06;20.00;61.50
13569;DHT22;6856;51.460;7.158;2023-05-10T13:09:39;20.00;61.70
13569;DHT22;6856;51.460;7.158;2023-05-10T13:12:13;20.10;61.60
13569;DHT22;6856;51.460;7.158;2023-05-10T13:14:47;20.10;61.60
13569;DHT22;6856;51.460;7.158;2023-05-10T13:17:25;20.10;61.80
13569;DHT22;6856;51.460;7.158;2023-05-10T13:19:59;20.20;61.40
13569;DHT22;6856;51.460;7.158;2023-05-10T13:22:33;20.20;61.10
13569;DHT22;6856;51.460;7.158;2023-05-10T13:25:11;20.30;61.00
13569;DHT22;6856;51.460;7.158;2023-05-10T13:27:46;20.30;61.00
13569;DHT22;6856;51.460;7.158;2023-05-10T13:30:19;20.40;60.70
13569;DHT22;6856;51.460;7.158;2023-05-10T13:32:55;20.40;60.10
13569;DHT22;6856;51.460;7.158;2023-05-10T13:35:29;20.50;59.90
13569;DHT22;6856;51.460;7.158;2023-05-10T13:38:04;20.50;59.70
13569;DHT22;6856;51.460;7.158;2023-05-10T13:40:39;20.50;59.60
13569;DHT22;6856;51.460;7.158;2023-05-10T13:43:13;20.50;59.50
13569;DHT22;6856;51.460;7.158;2023-05-10T13:45:47;20.60;59.50
13569;DHT22;6856;51.460;7.158;2023-05-10T13:48:23;20.60;59.50
13569;DHT22;6856;51.460;7.158;2023-05-10T13:50:57;20.70;59.30
13569;DHT22;6856;51.460;7.158;2023-05-10T13:53:31;20.70;59.30
13569;DHT22;6856;51.460;7.158;2023-05-10T13:56:05;20.80;59.20
13569;DHT22;6856;51.460;7.158;2023-05-10T13:58:40;20.80;59.00
13569;DHT22;6856;51.460;7.158;2023-05-10T14:01:14;20.90;58.90
13569;DHT22;6856;51.460;7.158;2023-05-10T14:03:50;20.90;58.80
13569;DHT22;6856;51.460;7.158;2023-05-10T14:06:24;20.90;58.50
13569;DHT22;6856;51.460;7.158;2023-05-10T14:08:58;20.90;58.30
13569;DHT22;6856;51.460;7.158;2023-05-10T14:11:32;21.00;57.90
13569;DHT22;6856;51.460;7.158;2023-05-10T14:14:06;21.00;57.80
13569;DHT22;6856;51.460;7.158;2023-05-10T14:16:42;21.00;57.70
13569;DHT22;6856;51.460;7.158;2023-05-10T14:19:19;21.00;57.60
13569;DHT22;6856;51.460;7.158;2023-05-10T14:21:53;21.00;57.70
13569;DHT22;6856;51.460;7.158;2023-05-10T14:24:27;21.00;57.70
13569;DHT22;6856;51.460;7.158;2023-05-10T14:27:01;21.10;58.10
13569;DHT22;6856;51.460;7.158;2023-05-10T14:29:34;21.10;57.90
13569;DHT22;6856;51.460;7.158;2023-05-10T14:32:08;21.10;57.60
13569;DHT22;6856;51.460;7.158;2023-05-10T14:34:44;21.20;57.40
13569;DHT22;6856;51.460;7.158;2023-05-10T14:37:17;21.20;57.00
13569;DHT22;6856;51.460;7.158;2023-05-10T14:39:51;21.20;56.90
13569;DHT22;6856;51.460;7.158;2023-05-10T14:42:25;21.20;56.60
13569;DHT22;6856;51.460;7.158;2023-05-10T14:45:00;21.20;56.40
13569;DHT22;6856;51.460;7.158;2023-05-10T14:47:34;21.20;56.10
13569;DHT22;6856;51.460;7.158;2023-05-10T14:50:10;21.20;56.20
13569;DHT22;6856;51.460;7.158;2023-05-10T14:53:02;21.20;56.20
13569;DHT22;6856;51.460;7.158;2023-05-10T14:55:37;21.20;56.40
13569;DHT22;6856;51.460;7.158;2023-05-10T14:58:12;21.20;56.40
13569;DHT22;6856;51.460;7.158;2023-05-10T15:00:46;21.20;56.10
13569;DHT22;6856;51.460;7.158;2023-05-10T15:03:21;21.20;56.00
13569;DHT22;6856;51.460;7.158;2023-05-10T15:05:57;21.20;55.90
13569;DHT22;6856;51.460;7.158;2023-05-10T15:08:30;21.20;56.10
13569;DHT22;6856;51.460;7.158;2023-05-10T15:11:04;21.20;56.10
13569;DHT22;6856;51.460;7.158;2023-05-10T15:13:38;21.30;56.10
13569;DHT22;6856;51.460;7.158;2023-05-10T15:16:12;21.30;56.00
13569;DHT22;6856;51.460;7.158;2023-05-10T15:18:46;21.30;56.10
13569;DHT22;6856;51.460;7.158;2023-05-10T15:21:22;21.30;56.00
13569;DHT22;6856;51.460;7.158;2023-05-10T15:23:56;21.30;55.80
13569;DHT22;6856;51.460;7.158;2023-05-10T15:26:30;21.40;56.00
13569;DHT22;6856;51.460;7.158;2023-05-10T15:29:04;21.40;55.80
13569;DHT22;6856;51.460;7.158;2023-05-10T15:31:38;21.40;55.70
13569;DHT22;6856;51.460;7.158;2023-05-10T15:34:12;21.40;55.80
13569;DHT22;6856;51.460;7.158;2023-05-10T15:36:48;21.40;55.80
13569;DHT22;6856;51.460;7.158;2023-05-10T15:39:22;21.40;55.70
13569;DHT22;6856;51.460;7.158;2023-05-10T15:41:56;21.40;55.60
13569;DHT22;6856;51.460;7.158;2023-05-10T15:44:29;21.40;55.40
13569;DHT22;6856;51.460;7.158;2023-05-10T15:47:04;21.40;55.60
13569;DHT22;6856;51.460;7.158;2023-05-10T15:49:39;21.40;55.70
13569;DHT22;6856;51.460;7.158;2023-05-10T15:52:14;21.40;55.60
13569;DHT22;6856;51.460;7.158;2023-05-10T15:54:50;21.40;55.60
13569;DHT22;6856;51.460;7.158;2023-05-10T15:57:23;21.40;55.80
13569;DHT22;6856;51.460;7.158;2023-05-10T15:59:58;21.40;55.80
13569;DHT22;6856;51.460;7.158;2023-05-10T16:02:33;21.40;55.80
13569;DHT22;6856;51.460;7.158;2023-05-10T16:05:09;21.40;56.10
13569;DHT22;6856;51.460;7.158;2023-05-10T16:07:44;21.40;55.90
13569;DHT22;6856;51.460;7.158;2023-05-10T16:10:18;21.40;55.60
13569;DHT22;6856;51.460;7.158;2023-05-10T16:12:53;21.40;55.70
13569;DHT22;6856;51.460;7.158;2023-05-10T16:15:27;21.40;55.70
13569;DHT22;6856;51.460;7.158;2023-05-10T16:18:01;21.30;55.60
13569;DHT22;6856;51.460;7.158;2023-05-10T16:20:35;21.30;55.70
13569;DHT22;6856;51.460;7.158;2023-05-10T16:23:11;21.30;55.90
13569;DHT22;6856;51.460;7.158;2023-05-10T16:25:46;21.30;55.90
13569;DHT22;6856;51.460;7.158;2023-05-10T16:28:20;21.20;56.40
13569;DHT22;6856;51.460;7.158;2023-05-10T16:30:54;21.20;57.20
13569;DHT22;6856;51.460;7.158;2023-05-10T16:33:28;21.20;57.80
13569;DHT22;6856;51.460;7.158;2023-05-10T16:36:03;21.20;58.10
13569;DHT22;6856;51.460;7.158;2023-05-10T16:38:38;21.20;58.20
13569;DHT22;6856;51.460;7.158;2023-05-10T16:41:12;21.10;57.80